<?xml version="1.0" encoding="UTF-8" standalone="no" ?>
<gpx xmlns="http://www.topografix.com/GPX/1/1" xmlns:xsi="http://www.w3.org/2001/XMLSchema-instance" xsi:schemaLocation="http://www.topografix.com/GPX/1/1 http://www.topografix.com/GPX/1/1/gpx.xsd" version="1.1" creator="VisuGPX - https://www.visugpx.com">
  <metadata>
    <name>parcours-16-02-2015</name>
    <desc><![CDATA[Montreuil (Eure et loir)]]></desc>
  </metadata>
  <trk>
    <name><![CDATA[2015-02-16 15:58:06]]></name>
    <trkseg>
      <trkpt lat="48.77681" lon="1.37645">
        <ele>81.37</ele>
        <time>2015-02-16T08:15:02Z</time>
      </trkpt>
      <trkpt lat="48.77703" lon="1.37514">
        <ele>81.37</ele>
        <time>2015-02-16T08:18:42Z</time>
      </trkpt>
      <trkpt lat="48.77725" lon="1.37376">
        <ele>81.85</ele>
        <time>2015-02-16T08:20:06Z</time>
      </trkpt>
      <trkpt lat="48.77729" lon="1.37227">
        <ele>80.89</ele>
        <time>2015-02-16T08:21:25Z</time>
      </trkpt>
      <trkpt lat="48.77703" lon="1.37094">
        <ele>80.41</ele>
        <time>2015-02-16T08:22:33Z</time>
      </trkpt>
      <trkpt lat="48.77695" lon="1.36951">
        <ele>80.89</ele>
        <time>2015-02-16T08:23:43Z</time>
      </trkpt>
      <trkpt lat="48.77667" lon="1.3682">
        <ele>82.33</ele>
        <time>2015-02-16T08:24:53Z</time>
      </trkpt>
      <trkpt lat="48.77689" lon="1.36699">
        <ele>85.21</ele>
        <time>2015-02-16T08:26:07Z</time>
      </trkpt>
      <trkpt lat="48.7772" lon="1.36605">
        <ele>87.62</ele>
        <time>2015-02-16T08:27:31Z</time>
      </trkpt>
      <trkpt lat="48.77736" lon="1.36456">
        <ele>100.11</ele>
        <time>2015-02-16T08:29:12Z</time>
      </trkpt>
      <trkpt lat="48.77753" lon="1.36314">
        <ele>112.61</ele>
        <time>2015-02-16T08:31:07Z</time>
      </trkpt>
      <trkpt lat="48.77681" lon="1.36184">
        <ele>126.55</ele>
        <time>2015-02-16T08:33:10Z</time>
      </trkpt>
      <trkpt lat="48.77612" lon="1.36024">
        <ele>130.88</ele>
        <time>2015-02-16T08:35:05Z</time>
      </trkpt>
      <trkpt lat="48.775" lon="1.3596">
        <ele>136.64</ele>
        <time>2015-02-16T08:36:59Z</time>
      </trkpt>
      <trkpt lat="48.77394" lon="1.35918">
        <ele>139.53</ele>
        <time>2015-02-16T08:39:10Z</time>
      </trkpt>
      <trkpt lat="48.77286" lon="1.3594">
        <ele>141.45</ele>
        <time>2015-02-16T08:40:45Z</time>
      </trkpt>
      <trkpt lat="48.772" lon="1.35832">
        <ele>140.49</ele>
        <time>2015-02-16T08:42:35Z</time>
      </trkpt>
      <trkpt lat="48.77097" lon="1.35758">
        <ele>140.01</ele>
        <time>2015-02-16T08:44:09Z</time>
      </trkpt>
      <trkpt lat="48.76993" lon="1.35797">
        <ele>138.57</ele>
        <time>2015-02-16T08:45:37Z</time>
      </trkpt>
      <trkpt lat="48.76885" lon="1.35862">
        <ele>138.57</ele>
        <time>2015-02-16T08:47:11Z</time>
      </trkpt>
      <trkpt lat="48.76792" lon="1.35897">
        <ele>137.61</ele>
        <time>2015-02-16T08:48:30Z</time>
      </trkpt>
      <trkpt lat="48.76695" lon="1.35922">
        <ele>137.13</ele>
        <time>2015-02-16T08:49:52Z</time>
      </trkpt>
      <trkpt lat="48.76609" lon="1.35894">
        <ele>136.16</ele>
        <time>2015-02-16T08:51:23Z</time>
      </trkpt>
      <trkpt lat="48.76494" lon="1.35916">
        <ele>135.68</ele>
        <time>2015-02-16T08:53:06Z</time>
      </trkpt>
      <trkpt lat="48.76378" lon="1.35898">
        <ele>135.68</ele>
        <time>2015-02-16T08:54:42Z</time>
      </trkpt>
      <trkpt lat="48.76302" lon="1.35835">
        <ele>135.68</ele>
        <time>2015-02-16T08:55:58Z</time>
      </trkpt>
      <trkpt lat="48.76218" lon="1.35786">
        <ele>136.16</ele>
        <time>2015-02-16T08:57:10Z</time>
      </trkpt>
      <trkpt lat="48.76133" lon="1.35743">
        <ele>136.16</ele>
        <time>2015-02-16T08:58:26Z</time>
      </trkpt>
      <trkpt lat="48.7605" lon="1.35687">
        <ele>136.64</ele>
        <time>2015-02-16T08:59:39Z</time>
      </trkpt>
      <trkpt lat="48.75969" lon="1.35737">
        <ele>135.2</ele>
        <time>2015-02-16T09:00:56Z</time>
      </trkpt>
      <trkpt lat="48.7589" lon="1.35804">
        <ele>134.72</ele>
        <time>2015-02-16T09:02:10Z</time>
      </trkpt>
      <trkpt lat="48.75853" lon="1.35831">
        <ele>134.24</ele>
        <time>2015-02-16T09:03:53Z</time>
      </trkpt>
      <trkpt lat="48.75936" lon="1.35774">
        <ele>135.68</ele>
        <time>2015-02-16T09:05:03Z</time>
      </trkpt>
      <trkpt lat="48.76012" lon="1.35699">
        <ele>135.68</ele>
        <time>2015-02-16T09:06:14Z</time>
      </trkpt>
      <trkpt lat="48.76097" lon="1.35655">
        <ele>135.2</ele>
        <time>2015-02-16T09:07:32Z</time>
      </trkpt>
      <trkpt lat="48.76185" lon="1.35622">
        <ele>135.68</ele>
        <time>2015-02-16T09:08:41Z</time>
      </trkpt>
      <trkpt lat="48.76271" lon="1.35587">
        <ele>137.13</ele>
        <time>2015-02-16T09:09:51Z</time>
      </trkpt>
      <trkpt lat="48.76357" lon="1.35544">
        <ele>137.61</ele>
        <time>2015-02-16T09:11:00Z</time>
      </trkpt>
      <trkpt lat="48.7644" lon="1.35499">
        <ele>137.13</ele>
        <time>2015-02-16T09:12:40Z</time>
      </trkpt>
      <trkpt lat="48.76523" lon="1.35447">
        <ele>135.68</ele>
        <time>2015-02-16T09:13:50Z</time>
      </trkpt>
      <trkpt lat="48.76591" lon="1.35356">
        <ele>133.28</ele>
        <time>2015-02-16T09:15:06Z</time>
      </trkpt>
      <trkpt lat="48.76677" lon="1.35261">
        <ele>120.78</ele>
        <time>2015-02-16T09:16:32Z</time>
      </trkpt>
      <trkpt lat="48.76826" lon="1.35206">
        <ele>100.11</ele>
        <time>2015-02-16T09:18:52Z</time>
      </trkpt>
      <trkpt lat="48.7692" lon="1.35183">
        <ele>95.31</ele>
        <time>2015-02-16T09:20:06Z</time>
      </trkpt>
      <trkpt lat="48.77004" lon="1.35112">
        <ele>93.87</ele>
        <time>2015-02-16T09:21:16Z</time>
      </trkpt>
      <trkpt lat="48.77074" lon="1.35019">
        <ele>92.42</ele>
        <time>2015-02-16T09:22:26Z</time>
      </trkpt>
      <trkpt lat="48.77159" lon="1.34976">
        <ele>89.06</ele>
        <time>2015-02-16T09:23:36Z</time>
      </trkpt>
      <trkpt lat="48.77245" lon="1.34935">
        <ele>84.25</ele>
        <time>2015-02-16T09:24:45Z</time>
      </trkpt>
      <trkpt lat="48.77315" lon="1.34853">
        <ele>81.37</ele>
        <time>2015-02-16T09:25:57Z</time>
      </trkpt>
      <trkpt lat="48.77388" lon="1.34773">
        <ele>79.93</ele>
        <time>2015-02-16T09:27:11Z</time>
      </trkpt>
      <trkpt lat="48.77446" lon="1.34671">
        <ele>81.37</ele>
        <time>2015-02-16T09:28:23Z</time>
      </trkpt>
      <trkpt lat="48.77448" lon="1.34559">
        <ele>80.89</ele>
        <time>2015-02-16T09:29:48Z</time>
      </trkpt>
      <trkpt lat="48.77444" lon="1.34439">
        <ele>80.89</ele>
        <time>2015-02-16T09:31:04Z</time>
      </trkpt>
      <trkpt lat="48.77536" lon="1.34386">
        <ele>80.41</ele>
        <time>2015-02-16T09:32:35Z</time>
      </trkpt>
      <trkpt lat="48.77618" lon="1.34334">
        <ele>81.85</ele>
        <time>2015-02-16T09:44:46Z</time>
      </trkpt>
      <trkpt lat="48.77714" lon="1.34295">
        <ele>80.89</ele>
        <time>2015-02-16T09:46:11Z</time>
      </trkpt>
      <trkpt lat="48.77811" lon="1.34255">
        <ele>80.89</ele>
        <time>2015-02-16T09:47:29Z</time>
      </trkpt>
      <trkpt lat="48.77903" lon="1.34187">
        <ele>80.41</ele>
        <time>2015-02-16T09:48:41Z</time>
      </trkpt>
      <trkpt lat="48.77963" lon="1.34076">
        <ele>80.89</ele>
        <time>2015-02-16T09:50:00Z</time>
      </trkpt>
      <trkpt lat="48.78023" lon="1.33972">
        <ele>82.81</ele>
        <time>2015-02-16T09:51:08Z</time>
      </trkpt>
      <trkpt lat="48.78062" lon="1.33894">
        <ele>87.14</ele>
        <time>2015-02-16T09:52:21Z</time>
      </trkpt>
      <trkpt lat="48.78105" lon="1.33783">
        <ele>98.19</ele>
        <time>2015-02-16T09:53:52Z</time>
      </trkpt>
      <trkpt lat="48.78226" lon="1.33643">
        <ele>129.43</ele>
        <time>2015-02-16T09:57:09Z</time>
      </trkpt>
      <trkpt lat="48.78286" lon="1.33526">
        <ele>129.92</ele>
        <time>2015-02-16T09:59:05Z</time>
      </trkpt>
      <trkpt lat="48.78369" lon="1.33436">
        <ele>131.36</ele>
        <time>2015-02-16T10:00:43Z</time>
      </trkpt>
      <trkpt lat="48.78441" lon="1.33299">
        <ele>129.92</ele>
        <time>2015-02-16T10:02:23Z</time>
      </trkpt>
      <trkpt lat="48.7847" lon="1.33152">
        <ele>127.03</ele>
        <time>2015-02-16T10:03:42Z</time>
      </trkpt>
      <trkpt lat="48.7853" lon="1.33015">
        <ele>123.19</ele>
        <time>2015-02-16T10:05:16Z</time>
      </trkpt>
      <trkpt lat="48.7867" lon="1.32946">
        <ele>114.53</ele>
        <time>2015-02-16T10:07:27Z</time>
      </trkpt>
      <trkpt lat="48.78735" lon="1.32833">
        <ele>110.69</ele>
        <time>2015-02-16T10:08:56Z</time>
      </trkpt>
      <trkpt lat="48.7878" lon="1.32932">
        <ele>115.5</ele>
        <time>2015-02-16T10:10:23Z</time>
      </trkpt>
      <trkpt lat="48.78835" lon="1.33046">
        <ele>112.61</ele>
        <time>2015-02-16T10:11:35Z</time>
      </trkpt>
      <trkpt lat="48.7889" lon="1.3316">
        <ele>106.84</ele>
        <time>2015-02-16T10:12:49Z</time>
      </trkpt>
      <trkpt lat="48.78964" lon="1.3325">
        <ele>99.15</ele>
        <time>2015-02-16T10:13:59Z</time>
      </trkpt>
      <trkpt lat="48.79018" lon="1.33332">
        <ele>96.27</ele>
        <time>2015-02-16T10:15:21Z</time>
      </trkpt>
      <trkpt lat="48.79062" lon="1.33406">
        <ele>93.87</ele>
        <time>2015-02-16T10:16:32Z</time>
      </trkpt>
      <trkpt lat="48.79149" lon="1.33438">
        <ele>90.98</ele>
        <time>2015-02-16T10:18:05Z</time>
      </trkpt>
      <trkpt lat="48.79176" lon="1.33308">
        <ele>92.42</ele>
        <time>2015-02-16T10:20:15Z</time>
      </trkpt>
      <trkpt lat="48.79184" lon="1.33154">
        <ele>94.35</ele>
        <time>2015-02-16T10:21:47Z</time>
      </trkpt>
      <trkpt lat="48.79229" lon="1.33025">
        <ele>97.23</ele>
        <time>2015-02-16T10:23:43Z</time>
      </trkpt>
      <trkpt lat="48.79319" lon="1.33011">
        <ele>98.67</ele>
        <time>2015-02-16T10:24:52Z</time>
      </trkpt>
      <trkpt lat="48.7941" lon="1.33005">
        <ele>101.56</ele>
        <time>2015-02-16T10:26:03Z</time>
      </trkpt>
      <trkpt lat="48.79499" lon="1.32994">
        <ele>103</ele>
        <time>2015-02-16T10:27:16Z</time>
      </trkpt>
      <trkpt lat="48.79581" lon="1.32948">
        <ele>106.84</ele>
        <time>2015-02-16T10:28:27Z</time>
      </trkpt>
      <trkpt lat="48.79653" lon="1.32867">
        <ele>109.73</ele>
        <time>2015-02-16T10:29:37Z</time>
      </trkpt>
      <trkpt lat="48.79723" lon="1.32779">
        <ele>111.65</ele>
        <time>2015-02-16T10:30:47Z</time>
      </trkpt>
      <trkpt lat="48.79783" lon="1.32683">
        <ele>112.13</ele>
        <time>2015-02-16T10:33:14Z</time>
      </trkpt>
      <trkpt lat="48.7984" lon="1.32579">
        <ele>111.17</ele>
        <time>2015-02-16T10:34:26Z</time>
      </trkpt>
      <trkpt lat="48.79895" lon="1.32466">
        <ele>105.4</ele>
        <time>2015-02-16T10:35:39Z</time>
      </trkpt>
      <trkpt lat="48.79909" lon="1.32326">
        <ele>104.44</ele>
        <time>2015-02-16T10:36:52Z</time>
      </trkpt>
      <trkpt lat="48.79935" lon="1.32191">
        <ele>115.98</ele>
        <time>2015-02-16T10:38:15Z</time>
      </trkpt>
      <trkpt lat="48.80008" lon="1.32245">
        <ele>124.63</ele>
        <time>2015-02-16T10:39:45Z</time>
      </trkpt>
      <trkpt lat="48.80071" lon="1.32351">
        <ele>130.88</ele>
        <time>2015-02-16T10:41:03Z</time>
      </trkpt>
      <trkpt lat="48.80126" lon="1.32467">
        <ele>134.24</ele>
        <time>2015-02-16T10:42:21Z</time>
      </trkpt>
      <trkpt lat="48.80164" lon="1.32598">
        <ele>135.68</ele>
        <time>2015-02-16T10:43:36Z</time>
      </trkpt>
      <trkpt lat="48.80177" lon="1.32746">
        <ele>136.64</ele>
        <time>2015-02-16T10:44:55Z</time>
      </trkpt>
      <trkpt lat="48.80188" lon="1.32895">
        <ele>136.16</ele>
        <time>2015-02-16T10:46:16Z</time>
      </trkpt>
      <trkpt lat="48.80166" lon="1.33039">
        <ele>136.16</ele>
        <time>2015-02-16T10:47:33Z</time>
      </trkpt>
      <trkpt lat="48.80132" lon="1.33169">
        <ele>135.68</ele>
        <time>2015-02-16T10:48:46Z</time>
      </trkpt>
      <trkpt lat="48.80085" lon="1.33303">
        <ele>135.68</ele>
        <time>2015-02-16T10:50:07Z</time>
      </trkpt>
      <trkpt lat="48.80067" lon="1.33449">
        <ele>135.68</ele>
        <time>2015-02-16T10:51:23Z</time>
      </trkpt>
      <trkpt lat="48.80057" lon="1.33618">
        <ele>133.76</ele>
        <time>2015-02-16T10:52:57Z</time>
      </trkpt>
      <trkpt lat="48.80052" lon="1.33774">
        <ele>132.32</ele>
        <time>2015-02-16T10:56:21Z</time>
      </trkpt>
      <trkpt lat="48.80066" lon="1.33933">
        <ele>130.88</ele>
        <time>2015-02-16T10:58:16Z</time>
      </trkpt>
      <trkpt lat="48.80055" lon="1.34095">
        <ele>128.95</ele>
        <time>2015-02-16T10:59:49Z</time>
      </trkpt>
      <trkpt lat="48.80063" lon="1.34266">
        <ele>127.51</ele>
        <time>2015-02-16T11:01:23Z</time>
      </trkpt>
      <trkpt lat="48.80041" lon="1.34417">
        <ele>121.74</ele>
        <time>2015-02-16T11:02:45Z</time>
      </trkpt>
      <trkpt lat="48.80005" lon="1.34549">
        <ele>112.13</ele>
        <time>2015-02-16T11:04:01Z</time>
      </trkpt>
      <trkpt lat="48.80013" lon="1.34691">
        <ele>97.71</ele>
        <time>2015-02-16T11:05:45Z</time>
      </trkpt>
      <trkpt lat="48.80055" lon="1.34809">
        <ele>85.21</ele>
        <time>2015-02-16T11:07:20Z</time>
      </trkpt>
      <trkpt lat="48.80028" lon="1.3492">
        <ele>81.85</ele>
        <time>2015-02-16T11:09:10Z</time>
      </trkpt>
      <trkpt lat="48.80029" lon="1.35033">
        <ele>77.52</ele>
        <time>2015-02-16T11:10:32Z</time>
      </trkpt>
      <trkpt lat="48.80074" lon="1.35157">
        <ele>74.16</ele>
        <time>2015-02-16T11:11:47Z</time>
      </trkpt>
      <trkpt lat="48.8013" lon="1.35219">
        <ele>70.79</ele>
        <time>2015-02-16T11:13:12Z</time>
      </trkpt>
      <trkpt lat="48.80172" lon="1.35342">
        <ele>69.83</ele>
        <time>2015-02-16T11:14:27Z</time>
      </trkpt>
      <trkpt lat="48.80214" lon="1.35466">
        <ele>69.83</ele>
        <time>2015-02-16T11:15:42Z</time>
      </trkpt>
      <trkpt lat="48.80212" lon="1.35572">
        <ele>69.83</ele>
        <time>2015-02-16T11:17:28Z</time>
      </trkpt>
      <trkpt lat="48.80137" lon="1.3565">
        <ele>69.83</ele>
        <time>2015-02-16T11:18:48Z</time>
      </trkpt>
      <trkpt lat="48.80056" lon="1.35708">
        <ele>70.31</ele>
        <time>2015-02-16T11:20:10Z</time>
      </trkpt>
      <trkpt lat="48.79983" lon="1.358">
        <ele>71.27</ele>
        <time>2015-02-16T11:21:29Z</time>
      </trkpt>
      <trkpt lat="48.79951" lon="1.3591">
        <ele>72.24</ele>
        <time>2015-02-16T11:22:51Z</time>
      </trkpt>
      <trkpt lat="48.79871" lon="1.35978">
        <ele>72.24</ele>
        <time>2015-02-16T11:24:05Z</time>
      </trkpt>
      <trkpt lat="48.79792" lon="1.36048">
        <ele>72.72</ele>
        <time>2015-02-16T11:25:20Z</time>
      </trkpt>
      <trkpt lat="48.79704" lon="1.36111">
        <ele>73.2</ele>
        <time>2015-02-16T11:26:42Z</time>
      </trkpt>
      <trkpt lat="48.79664" lon="1.36246">
        <ele>73.2</ele>
        <time>2015-02-16T11:27:58Z</time>
      </trkpt>
      <trkpt lat="48.79625" lon="1.36366">
        <ele>74.64</ele>
        <time>2015-02-16T11:29:33Z</time>
      </trkpt>
      <trkpt lat="48.79576" lon="1.3648">
        <ele>75.6</ele>
        <time>2015-02-16T11:32:14Z</time>
      </trkpt>
      <trkpt lat="48.79489" lon="1.36532">
        <ele>75.6</ele>
        <time>2015-02-16T11:33:29Z</time>
      </trkpt>
      <trkpt lat="48.79399" lon="1.36592">
        <ele>76.56</ele>
        <time>2015-02-16T11:34:50Z</time>
      </trkpt>
      <trkpt lat="48.79328" lon="1.36618">
        <ele>77.52</ele>
        <time>2015-02-16T11:36:11Z</time>
      </trkpt>
      <trkpt lat="48.79312" lon="1.36489">
        <ele>78</ele>
        <time>2015-02-16T11:37:39Z</time>
      </trkpt>
      <trkpt lat="48.79249" lon="1.36459">
        <ele>81.37</ele>
        <time>2015-02-16T11:38:53Z</time>
      </trkpt>
      <trkpt lat="48.79199" lon="1.36524">
        <ele>79.45</ele>
        <time>2015-02-16T11:53:39Z</time>
      </trkpt>
      <trkpt lat="48.792" lon="1.36527">
        <ele>82.81</ele>
        <time>2015-02-16T12:05:50Z</time>
      </trkpt>
      <trkpt lat="48.79228" lon="1.36662">
        <ele>78</ele>
        <time>2015-02-16T12:08:48Z</time>
      </trkpt>
      <trkpt lat="48.79251" lon="1.36799">
        <ele>77.52</ele>
        <time>2015-02-16T12:10:42Z</time>
      </trkpt>
      <trkpt lat="48.79287" lon="1.36924">
        <ele>77.52</ele>
        <time>2015-02-16T12:11:57Z</time>
      </trkpt>
      <trkpt lat="48.79325" lon="1.37051">
        <ele>76.56</ele>
        <time>2015-02-16T12:13:13Z</time>
      </trkpt>
      <trkpt lat="48.79346" lon="1.37185">
        <ele>77.52</ele>
        <time>2015-02-16T12:14:27Z</time>
      </trkpt>
      <trkpt lat="48.79342" lon="1.37327">
        <ele>77.04</ele>
        <time>2015-02-16T12:15:39Z</time>
      </trkpt>
      <trkpt lat="48.79298" lon="1.37448">
        <ele>75.6</ele>
        <time>2015-02-16T12:16:51Z</time>
      </trkpt>
      <trkpt lat="48.79229" lon="1.37546">
        <ele>77.04</ele>
        <time>2015-02-16T12:18:04Z</time>
      </trkpt>
      <trkpt lat="48.79206" lon="1.37674">
        <ele>78.97</ele>
        <time>2015-02-16T12:19:59Z</time>
      </trkpt>
      <trkpt lat="48.79247" lon="1.37802">
        <ele>82.33</ele>
        <time>2015-02-16T12:21:15Z</time>
      </trkpt>
      <trkpt lat="48.79275" lon="1.37933">
        <ele>88.1</ele>
        <time>2015-02-16T12:22:31Z</time>
      </trkpt>
      <trkpt lat="48.79292" lon="1.38069">
        <ele>92.9</ele>
        <time>2015-02-16T12:23:40Z</time>
      </trkpt>
      <trkpt lat="48.79287" lon="1.38211">
        <ele>96.27</ele>
        <time>2015-02-16T12:24:54Z</time>
      </trkpt>
      <trkpt lat="48.79255" lon="1.38345">
        <ele>97.71</ele>
        <time>2015-02-16T12:26:08Z</time>
      </trkpt>
      <trkpt lat="48.79207" lon="1.38467">
        <ele>100.11</ele>
        <time>2015-02-16T12:27:20Z</time>
      </trkpt>
      <trkpt lat="48.79151" lon="1.3858">
        <ele>102.04</ele>
        <time>2015-02-16T12:28:31Z</time>
      </trkpt>
      <trkpt lat="48.79067" lon="1.3865">
        <ele>103.96</ele>
        <time>2015-02-16T12:29:59Z</time>
      </trkpt>
      <trkpt lat="48.79008" lon="1.38429">
        <ele>131.36</ele>
        <time>2015-02-16T12:33:41Z</time>
      </trkpt>
      <trkpt lat="48.79029" lon="1.38203">
        <ele>134.72</ele>
        <time>2015-02-16T12:35:40Z</time>
      </trkpt>
      <trkpt lat="48.79022" lon="1.3801">
        <ele>132.8</ele>
        <time>2015-02-16T12:42:45Z</time>
      </trkpt>
      <trkpt lat="48.78877" lon="1.3804">
        <ele>134.72</ele>
        <time>2015-02-16T12:47:27Z</time>
      </trkpt>
      <trkpt lat="48.78759" lon="1.38022">
        <ele>131.84</ele>
        <time>2015-02-16T12:49:13Z</time>
      </trkpt>
      <trkpt lat="48.7861" lon="1.37991">
        <ele>133.76</ele>
        <time>2015-02-16T12:51:33Z</time>
      </trkpt>
      <trkpt lat="48.78474" lon="1.38008">
        <ele>128.47</ele>
        <time>2015-02-16T12:53:19Z</time>
      </trkpt>
      <trkpt lat="48.78337" lon="1.38002">
        <ele>128.47</ele>
        <time>2015-02-16T12:55:03Z</time>
      </trkpt>
      <trkpt lat="48.78195" lon="1.38013">
        <ele>128.95</ele>
        <time>2015-02-16T12:56:58Z</time>
      </trkpt>
      <trkpt lat="48.78069" lon="1.37979">
        <ele>119.82</ele>
        <time>2015-02-16T12:58:29Z</time>
      </trkpt>
      <trkpt lat="48.7793" lon="1.38051">
        <ele>128.95</ele>
        <time>2015-02-16T13:00:34Z</time>
      </trkpt>
      <trkpt lat="48.77846" lon="1.38168">
        <ele>131.36</ele>
        <time>2015-02-16T13:01:56Z</time>
      </trkpt>
      <trkpt lat="48.77764" lon="1.38252">
        <ele>132.32</ele>
        <time>2015-02-16T13:03:05Z</time>
      </trkpt>
      <trkpt lat="48.77695" lon="1.38359">
        <ele>132.32</ele>
        <time>2015-02-16T13:04:18Z</time>
      </trkpt>
      <trkpt lat="48.77631" lon="1.38471">
        <ele>132.32</ele>
        <time>2015-02-16T13:05:33Z</time>
      </trkpt>
      <trkpt lat="48.77574" lon="1.38617">
        <ele>132.8</ele>
        <time>2015-02-16T13:06:55Z</time>
      </trkpt>
      <trkpt lat="48.77518" lon="1.38749">
        <ele>134.72</ele>
        <time>2015-02-16T13:08:35Z</time>
      </trkpt>
      <trkpt lat="48.77478" lon="1.38858">
        <ele>134.24</ele>
        <time>2015-02-16T13:12:43Z</time>
      </trkpt>
      <trkpt lat="48.77452" lon="1.39034">
        <ele>133.28</ele>
        <time>2015-02-16T13:14:28Z</time>
      </trkpt>
      <trkpt lat="48.7744" lon="1.3922">
        <ele>132.32</ele>
        <time>2015-02-16T13:16:16Z</time>
      </trkpt>
      <trkpt lat="48.77343" lon="1.39622">
        <ele>138.09</ele>
        <time>2015-02-16T13:22:12Z</time>
      </trkpt>
      <trkpt lat="48.77298" lon="1.39913">
        <ele>138.09</ele>
        <time>2015-02-16T13:24:55Z</time>
      </trkpt>
      <trkpt lat="48.77269" lon="1.40158">
        <ele>135.68</ele>
        <time>2015-02-16T13:27:11Z</time>
      </trkpt>
      <trkpt lat="48.77203" lon="1.40185">
        <ele>122.22</ele>
        <time>2015-02-16T13:28:59Z</time>
      </trkpt>
      <trkpt lat="48.77114" lon="1.40117">
        <ele>101.08</ele>
        <time>2015-02-16T13:31:09Z</time>
      </trkpt>
      <trkpt lat="48.77022" lon="1.40081">
        <ele>84.73</ele>
        <time>2015-02-16T13:32:37Z</time>
      </trkpt>
      <trkpt lat="48.76957" lon="1.40156">
        <ele>81.37</ele>
        <time>2015-02-16T13:33:51Z</time>
      </trkpt>
      <trkpt lat="48.76867" lon="1.40093">
        <ele>81.85</ele>
        <time>2015-02-16T13:36:00Z</time>
      </trkpt>
      <trkpt lat="48.76775" lon="1.40024">
        <ele>79.45</ele>
        <time>2015-02-16T13:37:22Z</time>
      </trkpt>
      <trkpt lat="48.76691" lon="1.39954">
        <ele>78.97</ele>
        <time>2015-02-16T13:38:41Z</time>
      </trkpt>
      <trkpt lat="48.76611" lon="1.39881">
        <ele>78</ele>
        <time>2015-02-16T13:39:57Z</time>
      </trkpt>
      <trkpt lat="48.76526" lon="1.3983">
        <ele>78.48</ele>
        <time>2015-02-16T13:41:11Z</time>
      </trkpt>
      <trkpt lat="48.76471" lon="1.39768">
        <ele>80.41</ele>
        <time>2015-02-16T13:42:28Z</time>
      </trkpt>
      <trkpt lat="48.76483" lon="1.39643">
        <ele>80.41</ele>
        <time>2015-02-16T13:44:48Z</time>
      </trkpt>
      <trkpt lat="48.76397" lon="1.39598">
        <ele>84.25</ele>
        <time>2015-02-16T13:46:02Z</time>
      </trkpt>
      <trkpt lat="48.76318" lon="1.39528">
        <ele>86.66</ele>
        <time>2015-02-16T13:47:14Z</time>
      </trkpt>
      <trkpt lat="48.7624" lon="1.39456">
        <ele>89.06</ele>
        <time>2015-02-16T13:48:23Z</time>
      </trkpt>
      <trkpt lat="48.76166" lon="1.39376">
        <ele>90.5</ele>
        <time>2015-02-16T13:49:32Z</time>
      </trkpt>
      <trkpt lat="48.76093" lon="1.39297">
        <ele>92.9</ele>
        <time>2015-02-16T13:50:45Z</time>
      </trkpt>
      <trkpt lat="48.76019" lon="1.39217">
        <ele>95.31</ele>
        <time>2015-02-16T13:51:57Z</time>
      </trkpt>
      <trkpt lat="48.75944" lon="1.39141">
        <ele>97.71</ele>
        <time>2015-02-16T13:53:09Z</time>
      </trkpt>
      <trkpt lat="48.75878" lon="1.39047">
        <ele>101.56</ele>
        <time>2015-02-16T13:54:24Z</time>
      </trkpt>
      <trkpt lat="48.75836" lon="1.38927">
        <ele>107.81</ele>
        <time>2015-02-16T13:55:41Z</time>
      </trkpt>
      <trkpt lat="48.75755" lon="1.38837">
        <ele>123.67</ele>
        <time>2015-02-16T13:57:27Z</time>
      </trkpt>
      <trkpt lat="48.75652" lon="1.38744">
        <ele>133.76</ele>
        <time>2015-02-16T14:00:01Z</time>
      </trkpt>
      <trkpt lat="48.75563" lon="1.38671">
        <ele>136.16</ele>
        <time>2015-02-16T14:01:25Z</time>
      </trkpt>
      <trkpt lat="48.75467" lon="1.38613">
        <ele>136.16</ele>
        <time>2015-02-16T14:02:48Z</time>
      </trkpt>
      <trkpt lat="48.75386" lon="1.3853">
        <ele>134.24</ele>
        <time>2015-02-16T14:04:03Z</time>
      </trkpt>
      <trkpt lat="48.75323" lon="1.38416">
        <ele>134.72</ele>
        <time>2015-02-16T14:05:23Z</time>
      </trkpt>
      <trkpt lat="48.75246" lon="1.38325">
        <ele>132.8</ele>
        <time>2015-02-16T14:06:42Z</time>
      </trkpt>
      <trkpt lat="48.75204" lon="1.38196">
        <ele>131.36</ele>
        <time>2015-02-16T14:08:06Z</time>
      </trkpt>
      <trkpt lat="48.75248" lon="1.38113">
        <ele>133.76</ele>
        <time>2015-02-16T14:09:40Z</time>
      </trkpt>
      <trkpt lat="48.75336" lon="1.38048">
        <ele>134.72</ele>
        <time>2015-02-16T14:11:20Z</time>
      </trkpt>
      <trkpt lat="48.75407" lon="1.37948">
        <ele>135.68</ele>
        <time>2015-02-16T14:12:43Z</time>
      </trkpt>
      <trkpt lat="48.75495" lon="1.37888">
        <ele>134.72</ele>
        <time>2015-02-16T14:14:05Z</time>
      </trkpt>
      <trkpt lat="48.7558" lon="1.37814">
        <ele>135.68</ele>
        <time>2015-02-16T14:15:31Z</time>
      </trkpt>
      <trkpt lat="48.75574" lon="1.37667">
        <ele>135.68</ele>
        <time>2015-02-16T14:16:50Z</time>
      </trkpt>
      <trkpt lat="48.75586" lon="1.37576">
        <ele>136.16</ele>
        <time>2015-02-16T14:18:11Z</time>
      </trkpt>
      <trkpt lat="48.75679" lon="1.37628">
        <ele>136.64</ele>
        <time>2015-02-16T14:20:19Z</time>
      </trkpt>
      <trkpt lat="48.75796" lon="1.37589">
        <ele>136.16</ele>
        <time>2015-02-16T14:21:48Z</time>
      </trkpt>
      <trkpt lat="48.759" lon="1.37587">
        <ele>135.2</ele>
        <time>2015-02-16T14:23:11Z</time>
      </trkpt>
      <trkpt lat="48.75991" lon="1.37657">
        <ele>134.24</ele>
        <time>2015-02-16T14:24:33Z</time>
      </trkpt>
      <trkpt lat="48.7609" lon="1.37709">
        <ele>132.8</ele>
        <time>2015-02-16T14:25:54Z</time>
      </trkpt>
      <trkpt lat="48.76179" lon="1.37755">
        <ele>127.03</ele>
        <time>2015-02-16T14:27:06Z</time>
      </trkpt>
      <trkpt lat="48.76253" lon="1.37805">
        <ele>114.53</ele>
        <time>2015-02-16T14:28:20Z</time>
      </trkpt>
      <trkpt lat="48.76323" lon="1.37719">
        <ele>108.77</ele>
        <time>2015-02-16T14:29:39Z</time>
      </trkpt>
      <trkpt lat="48.76411" lon="1.37663">
        <ele>103.48</ele>
        <time>2015-02-16T14:30:52Z</time>
      </trkpt>
      <trkpt lat="48.76489" lon="1.37654">
        <ele>99.15</ele>
        <time>2015-02-16T14:32:24Z</time>
      </trkpt>
      <trkpt lat="48.76554" lon="1.37754">
        <ele>94.83</ele>
        <time>2015-02-16T14:33:49Z</time>
      </trkpt>
      <trkpt lat="48.7662" lon="1.37843">
        <ele>90.5</ele>
        <time>2015-02-16T14:34:59Z</time>
      </trkpt>
      <trkpt lat="48.76698" lon="1.37888">
        <ele>83.77</ele>
        <time>2015-02-16T14:40:49Z</time>
      </trkpt>
      <trkpt lat="48.76772" lon="1.37944">
        <ele>77.04</ele>
        <time>2015-02-16T14:42:02Z</time>
      </trkpt>
      <trkpt lat="48.76834" lon="1.38047">
        <ele>73.68</ele>
        <time>2015-02-16T14:43:15Z</time>
      </trkpt>
      <trkpt lat="48.76913" lon="1.38123">
        <ele>71.76</ele>
        <time>2015-02-16T14:44:25Z</time>
      </trkpt>
      <trkpt lat="48.76996" lon="1.38147">
        <ele>70.79</ele>
        <time>2015-02-16T14:45:32Z</time>
      </trkpt>
      <trkpt lat="48.77072" lon="1.38079">
        <ele>70.79</ele>
        <time>2015-02-16T14:46:41Z</time>
      </trkpt>
      <trkpt lat="48.77155" lon="1.38018">
        <ele>70.31</ele>
        <time>2015-02-16T14:47:51Z</time>
      </trkpt>
      <trkpt lat="48.77234" lon="1.37939">
        <ele>69.83</ele>
        <time>2015-02-16T14:49:16Z</time>
      </trkpt>
      <trkpt lat="48.77289" lon="1.37827">
        <ele>69.35</ele>
        <time>2015-02-16T14:50:26Z</time>
      </trkpt>
      <trkpt lat="48.77357" lon="1.37733">
        <ele>69.35</ele>
        <time>2015-02-16T14:51:36Z</time>
      </trkpt>
      <trkpt lat="48.77448" lon="1.37696">
        <ele>68.87</ele>
        <time>2015-02-16T14:52:52Z</time>
      </trkpt>
      <trkpt lat="48.77524" lon="1.37786">
        <ele>69.35</ele>
        <time>2015-02-16T14:54:13Z</time>
      </trkpt>
      <trkpt lat="48.77605" lon="1.37852">
        <ele>68.87</ele>
        <time>2015-02-16T14:55:43Z</time>
      </trkpt>
      <trkpt lat="48.77649" lon="1.37735">
        <ele>68.87</ele>
        <time>2015-02-16T14:56:59Z</time>
      </trkpt>
    </trkseg>
  </trk>
</gpx>